Time;durP1;ratioP1;P1;durP2;ratioP2;P2;SDS_P1;SDS_P2;PMS_P1;PMS_P2;Temp;Humidity;BMP_temperature;BMP_pressure;BME280_temperature;BME280_humidity;BME280_pressure;Samples;Min_cycle;Max_cycle;Signal;HPM_P1;HPM_P2
2024/01/01 00:01:47;;;;;;;104.38;61.05;;;5.20;99.90;;;;;;5078241;28;20067;-79
2024/01/01 00:04:15;;;;;;;107.30;63.10;;;5.30;99.90;;;;;;5065583;28;20024;-76
2024/01/01 00:06:42;;;;;;;101.38;59.33;;;5.20;99.90;;;;;;5073097;28;20033;-78
2024/01/01 00:09:09;;;;;;;97.07;53.80;;;5.20;99.90;;;;;;5060125;28;20433;-78
2024/01/01 00:11:37;;;;;;;83.75;54.17;;;5.30;99.90;;;;;;5073508;28;20374;-75
2024/01/01 00:14:04;;;;;;;91.95;55.45;;;5.40;99.90;;;;;;5071390;28;20071;-78
2024/01/01 00:16:33;;;;;;;94.95;57.08;;;5.30;99.90;;;;;;5076437;28;20041;-78
2024/01/01 00:19:00;;;;;;;93.45;56.25;;;5.30;99.90;;;;;;5074124;28;20475;-73
2024/01/01 00:21:28;;;;;;;82.00;51.45;;;5.30;99.90;;;;;;5078886;28;20028;-77
2024/01/01 00:23:55;;;;;;;81.28;50.35;;;5.30;99.90;;;;;;5072556;28;20057;-76
2024/01/01 00:26:22;;;;;;;86.32;50.22;;;4.80;99.90;;;;;;5075477;28;20032;-79
2024/01/01 00:28:50;;;;;;;84.55;49.22;;;4.70;99.90;;;;;;5074444;28;20053;-79
2024/01/01 00:31:17;;;;;;;82.28;47.63;;;4.60;99.90;;;;;;5073062;28;20525;-78
2024/01/01 00:33:44;;;;;;;79.60;46.88;;;4.40;99.90;;;;;;5076741;28;20429;-79
2024/01/01 00:36:12;;;;;;;74.07;47.40;;;4.40;99.90;;;;;;5076811;28;20064;-68
2024/01/01 00:38:39;;;;;;;82.70;47.67;;;4.60;99.90;;;;;;5066015;28;20045;-76
2024/01/01 00:41:12;;;;;;;78.38;49.05;;;4.70;99.90;;;;;;5071719;28;20040;-81
2024/01/01 00:43:39;;;;;;;78.95;48.10;;;4.90;99.90;;;;;;5078457;28;20037;-74
2024/01/01 00:46:06;;;;;;;82.47;52.45;;;4.70;99.90;;;;;;5073384;28;20040;-78
2024/01/01 00:48:33;;;;;;;86.70;52.75;;;4.70;99.90;;;;;;5076000;28;20115;-76
2024/01/01 00:51:01;;;;;;;95.47;54.00;;;4.70;99.90;;;;;;5079925;28;20059;-75
2024/01/01 00:53:28;;;;;;;116.47;68.35;;;4.70;99.90;;;;;;5054917;28;20477;-76
2024/01/01 00:55:55;;;;;;;152.82;90.55;;;4.70;99.90;;;;;;5078888;28;20036;-77
2024/01/01 00:58:22;;;;;;;176.10;105.35;;;4.70;99.90;;;;;;5082010;28;20309;-75
2024/01/01 01:00:50;;;;;;;203.95;118.93;;;4.70;99.90;;;;;;5055969;28;20087;-78
2024/01/01 01:03:17;;;;;;;205.73;123.07;;;4.50;99.90;;;;;;5073616;28;20044;-74
2024/01/01 01:05:44;;;;;;;203.15;124.38;;;4.50;99.90;;;;;;5076516;28;20040;-75
2024/01/01 01:08:12;;;;;;;226.77;130.45;;;4.50;99.90;;;;;;5074170;28;20122;-74
2024/01/01 01:10:40;;;;;;;227.80;131.43;;;4.40;99.90;;;;;;5071281;28;20047;-72
2024/01/01 01:13:07;;;;;;;220.52;133.25;;;4.40;99.90;;;;;;5079646;28;20035;-72
2024/01/01 01:15:35;;;;;;;230.95;138.73;;;4.30;99.90;;;;;;5075812;28;20036;-69
2024/01/01 01:18:02;;;;;;;235.23;138.02;;;4.30;99.90;;;;;;5077116;28;20395;-72
2024/01/01 01:20:30;;;;;;;229.80;137.07;;;4.30;99.90;;;;;;5076615;28;20031;-71
2024/01/01 01:22:58;;;;;;;236.95;141.93;;;4.20;99.90;;;;;;5077307;28;20373;-74
2024/01/01 01:25:26;;;;;;;229.18;137.77;;;4.20;99.90;;;;;;5080663;28;20098;-72
2024/01/01 01:27:53;;;;;;;236.32;143.80;;;4.30;99.90;;;;;;5080658;28;20135;-72
2024/01/01 01:30:20;;;;;;;236.57;140.23;;;4.20;99.90;;;;;;5073719;28;20117;-70
2024/01/01 01:32:48;;;;;;;235.18;140.35;;;4.10;99.90;;;;;;5077141;28;20042;-73
2024/01/01 01:35:15;;;;;;;205.98;124.85;;;3.80;99.90;;;;;;5075997;28;20036;-72
2024/01/01 01:37:48;;;;;;;187.60;117.30;;;3.60;99.90;;;;;;5077061;28;20121;-72
2024/01/01 01:40:15;;;;;;;396.52;220.13;;;3.20;99.90;;;;;;5079739;28;20379;-73
2024/01/01 01:42:46;;;;;;;275.33;160.55;;;3.30;99.90;;;;;;5081922;28;20130;-73
2024/01/01 01:45:14;;;;;;;239.60;145.85;;;3.60;99.90;;;;;;5076524;28;20045;-73
2024/01/01 01:47:42;;;;;;;231.93;143.68;;;3.60;99.90;;;;;;5075310;28;20041;-74
2024/01/01 01:50:09;;;;;;;197.10;121.90;;;3.60;99.90;;;;;;5081688;28;20036;-74
2024/01/01 01:52:39;;;;;;;196.15;117.03;;;3.40;99.90;;;;;;5067906;28;20073;-73
2024/01/01 01:55:07;;;;;;;184.25;114.57;;;3.10;99.90;;;;;;5077056;28;20031;-72
2024/01/01 01:57:36;;;;;;;168.82;107.38;;;3.20;99.90;;;;;;5071422;28;20067;-74
2024/01/01 02:00:05;;;;;;;169.98;103.95;;;3.40;99.90;;;;;;5070906;28;20031;-74
2024/01/01 02:02:35;;;;;;;171.50;102.22;;;3.50;99.90;;;;;;5073652;28;20033;-76
2024/01/01 02:05:06;;;;;;;162.73;101.90;;;3.50;99.90;;;;;;5079088;28;20036;-74
2024/01/01 02:07:33;;;;;;;154.65;96.53;;;3.50;99.90;;;;;;5069228;28;20464;-74
2024/01/01 02:10:01;;;;;;;144.57;92.60;;;3.70;99.90;;;;;;5079040;28;20097;-75
2024/01/01 02:12:29;;;;;;;141.80;86.63;;;3.70;99.90;;;;;;5075179;28;20723;-75
2024/01/01 02:14:56;;;;;;;143.82;85.50;;;3.70;99.90;;;;;;5076335;28;20214;-71
2024/01/01 02:17:23;;;;;;;121.20;79.82;;;3.70;99.90;;;;;;5072934;28;20056;-75
2024/01/01 02:19:51;;;;;;;118.38;76.15;;;3.50;99.90;;;;;;5076106;28;20036;-72
2024/01/01 02:22:22;;;;;;;115.60;74.88;;;3.10;99.90;;;;;;5079157;28;20032;-71
2024/01/01 02:24:49;;;;;;;120.95;78.22;;;3.30;99.90;;;;;;5079066;28;20036;-72
2024/01/01 02:27:17;;;;;;;120.43;77.15;;;3.20;99.90;;;;;;5072934;28;20028;-75
2024/01/01 02:29:44;;;;;;;115.25;73.10;;;3.30;99.90;;;;;;5077938;28;20130;-74
2024/01/01 02:32:11;;;;;;;111.13;68.03;;;3.30;99.90;;;;;;5084142;28;20119;-74
2024/01/01 02:34:39;;;;;;;107.28;67.55;;;3.40;99.90;;;;;;5079394;28;20036;-74
2024/01/01 02:37:06;;;;;;;108.40;68.32;;;3.50;99.90;;;;;;5073677;28;20043;-73
2024/01/01 02:39:33;;;;;;;119.95;71.82;;;3.50;99.90;;;;;;5076814;28;20028;-74
2024/01/01 02:42:00;;;;;;;118.50;73.40;;;3.50;99.90;;;;;;5078488;28;20517;-75
2024/01/01 02:44:28;;;;;;;119.28;71.65;;;3.60;99.90;;;;;;5076098;28;20091;-76
2024/01/01 02:46:55;;;;;;;121.28;71.22;;;3.70;99.90;;;;;;5078704;28;20041;-75
2024/01/01 02:49:22;;;;;;;113.10;69.07;;;3.10;99.90;;;;;;5081172;28;20386;-71
2024/01/01 02:51:49;;;;;;;110.10;66.53;;;2.80;99.90;;;;;;5079068;28;20032;-76
2024/01/01 02:54:17;;;;;;;119.25;70.70;;;3.00;99.90;;;;;;5079591;28;20067;-76
2024/01/01 02:56:44;;;;;;;118.95;72.63;;;3.30;99.90;;;;;;5080251;28;20041;-72
2024/01/01 02:59:12;;;;;;;115.68;72.40;;;3.40;99.90;;;;;;5074777;28;20415;-74
2024/01/01 03:01:39;;;;;;;115.70;70.95;;;3.40;99.90;;;;;;5078662;28;20124;-73
2024/01/01 03:04:06;;;;;;;113.15;67.93;;;3.60;99.90;;;;;;5077242;28;20070;-69
2024/01/01 03:06:34;;;;;;;108.47;64.72;;;3.70;99.90;;;;;;5076418;28;20040;-72
2024/01/01 03:09:01;;;;;;;106.47;65.10;;;3.50;99.90;;;;;;5077707;28;20028;-71
2024/01/01 03:11:28;;;;;;;107.40;67.75;;;3.70;99.90;;;;;;5080495;28;20123;-72
2024/01/01 03:13:56;;;;;;;105.18;64.90;;;3.60;99.90;;;;;;5077525;28;20039;-73
2024/01/01 03:16:24;;;;;;;105.22;61.17;;;3.70;99.90;;;;;;5079993;28;20051;-72
2024/01/01 03:18:52;;;;;;;104.68;61.67;;;3.80;99.90;;;;;;5079095;28;20040;-71
2024/01/01 03:21:19;;;;;;;98.47;59.92;;;3.80;99.90;;;;;;5078317;28;20032;-72
2024/01/01 03:23:46;;;;;;;97.68;55.83;;;3.80;99.90;;;;;;5069514;28;20060;-72
2024/01/01 03:26:14;;;;;;;98.90;60.40;;;3.80;99.90;;;;;;5078889;28;20085;-70
2024/01/01 03:28:41;;;;;;;101.93;60.85;;;3.70;99.90;;;;;;5073946;28;20032;-71
2024/01/01 03:31:10;;;;;;;101.05;60.53;;;3.70;99.90;;;;;;5077127;28;20052;-69
2024/01/01 03:33:37;;;;;;;102.97;63.55;;;3.80;99.90;;;;;;5074566;28;20036;-73
2024/01/01 03:36:05;;;;;;;106.93;64.03;;;3.70;99.90;;;;;;5080080;28;20115;-72
2024/01/01 03:38:33;;;;;;;102.20;62.88;;;3.60;99.90;;;;;;5077250;28;20111;-71
2024/01/01 03:41:00;;;;;;;105.78;65.57;;;3.70;99.90;;;;;;5079276;28;20450;-71
2024/01/01 03:43:27;;;;;;;119.22;69.90;;;3.60;99.90;;;;;;5076450;28;20082;-72
2024/01/01 03:45:54;;;;;;;119.25;69.38;;;3.20;99.90;;;;;;5075893;28;20151;-73
2024/01/01 03:48:22;;;;;;;119.53;69.70;;;3.10;99.90;;;;;;5080032;28;20115;-72
2024/01/01 03:50:49;;;;;;;111.22;65.57;;;3.40;99.90;;;;;;5084915;28;20043;-72
2024/01/01 03:53:16;;;;;;;113.38;66.82;;;3.60;99.90;;;;;;5081331;28;20028;-73
2024/01/01 03:55:44;;;;;;;113.88;65.50;;;3.70;99.90;;;;;;5082103;28;20044;-73
2024/01/01 03:58:11;;;;;;;116.03;70.70;;;3.40;99.90;;;;;;5082992;28;20468;-73
2024/01/01 04:00:38;;;;;;;116.20;69.60;;;3.30;99.90;;;;;;5083945;28;20107;-74
2024/01/01 04:03:06;;;;;;;112.22;67.32;;;3.40;99.90;;;;;;5074663;28;20040;-73
2024/01/01 04:05:33;;;;;;;114.47;68.90;;;3.30;99.90;;;;;;5080919;28;20032;-71
2024/01/01 04:08:00;;;;;;;116.43;68.28;;;3.40;99.90;;;;;;5080150;28;20348;-74
2024/01/01 04:10:28;;;;;;;115.57;66.90;;;3.40;99.90;;;;;;5082477;28;20110;-72
2024/01/01 04:12:55;;;;;;;109.57;67.72;;;3.20;99.90;;;;;;5082540;28;20037;-73
2024/01/01 04:15:23;;;;;;;116.85;69.35;;;3.10;99.90;;;;;;5078105;28;20072;-73
2024/01/01 04:17:51;;;;;;;112.95;64.55;;;3.00;99.90;;;;;;5082670;28;20367;-71
2024/01/01 04:20:18;;;;;;;112.93;65.97;;;2.90;99.90;;;;;;5071890;28;20045;-71
2024/01/01 04:22:48;;;;;;;118.25;68.28;;;3.10;99.90;;;;;;5081549;28;20067;-72
2024/01/01 04:25:15;;;;;;;117.05;67.00;;;3.20;99.90;;;;;;5081800;28;20028;-72
2024/01/01 04:27:42;;;;;;;107.78;63.50;;;3.10;99.90;;;;;;5079327;28;20101;-70
2024/01/01 04:30:10;;;;;;;111.78;67.63;;;3.20;99.90;;;;;;5078604;28;20089;-72
2024/01/01 04:32:38;;;;;;;107.93;66.68;;;3.30;99.90;;;;;;5082262;28;20037;-70
2024/01/01 04:35:05;;;;;;;111.78;68.72;;;3.20;99.90;;;;;;5081343;28;20105;-73
2024/01/01 04:37:33;;;;;;;113.25;66.28;;;3.10;99.90;;;;;;5095622;28;20462;-72
2024/01/01 04:40:00;;;;;;;111.05;68.88;;;3.10;99.90;;;;;;5079719;28;20040;-72
2024/01/01 04:42:28;;;;;;;107.85;67.45;;;3.20;99.90;;;;;;5083403;28;20108;-72
2024/01/01 04:44:55;;;;;;;130.60;77.35;;;3.10;99.90;;;;;;5080758;28;20031;-70
2024/01/01 04:47:22;;;;;;;133.68;79.18;;;3.10;99.90;;;;;;5078694;28;20111;-75
2024/01/01 04:49:50;;;;;;;137.73;85.20;;;3.00;99.90;;;;;;5081041;28;20056;-72
2024/01/01 04:52:17;;;;;;;149.68;86.43;;;2.90;99.90;;;;;;5080807;28;20410;-71
2024/01/01 04:54:44;;;;;;;122.82;73.93;;;3.00;99.90;;;;;;5079251;28;20036;-73
2024/01/01 04:57:12;;;;;;;123.43;74.53;;;2.60;99.90;;;;;;5083354;28;20035;-72
2024/01/01 04:59:39;;;;;;;131.35;75.80;;;2.70;99.90;;;;;;5071757;28;20611;-71
2024/01/01 05:02:06;;;;;;;138.35;81.07;;;2.80;99.90;;;;;;5079024;28;20131;-73
2024/01/01 05:04:51;;;;;;;137.10;82.30;;;2.80;99.90;;;;;;5078457;28;20025;-71
2024/01/01 05:07:18;;;;;;;143.93;87.88;;;2.80;99.90;;;;;;5078681;28;20067;-75
2024/01/01 05:09:46;;;;;;;140.82;84.30;;;2.70;99.90;;;;;;5081717;28;20036;-74
2024/01/01 05:12:14;;;;;;;143.50;82.95;;;2.60;99.90;;;;;;5082949;28;20026;-75
2024/01/01 05:14:41;;;;;;;141.88;87.68;;;2.60;99.90;;;;;;5076001;28;20128;-73
2024/01/01 05:17:09;;;;;;;134.55;80.28;;;2.70;99.90;;;;;;5072857;28;20115;-75
2024/01/01 05:19:36;;;;;;;141.75;83.38;;;2.60;99.90;;;;;;5082573;28;20536;-73
2024/01/01 05:22:04;;;;;;;129.77;81.05;;;2.60;99.90;;;;;;5079823;28;20039;-75
2024/01/01 05:24:31;;;;;;;140.32;82.55;;;2.60;99.90;;;;;;5081134;28;20043;-74
2024/01/01 05:26:58;;;;;;;129.65;82.45;;;2.70;99.90;;;;;;5081070;28;20904;-75
2024/01/01 05:29:26;;;;;;;138.07;81.10;;;2.90;99.90;;;;;;5075701;28;20059;-73
2024/01/01 05:31:54;;;;;;;118.97;74.30;;;2.80;99.90;;;;;;5077572;28;20109;-75
2024/01/01 05:34:23;;;;;;;108.82;70.22;;;2.70;99.90;;;;;;5081304;28;20040;-75
2024/01/01 05:36:51;;;;;;;92.47;62.67;;;2.10;99.90;;;;;;5080532;28;20896;-71
2024/01/01 05:39:18;;;;;;;87.75;59.33;;;2.00;99.90;;;;;;5076534;28;20042;-72
2024/01/01 05:41:46;;;;;;;81.10;53.58;;;2.20;99.90;;;;;;5079600;28;20064;-74
2024/01/01 05:44:13;;;;;;;81.22;52.75;;;2.40;99.90;;;;;;5084052;28;20477;-72
2024/01/01 05:46:40;;;;;;;84.22;53.17;;;2.40;99.90;;;;;;5073594;28;20782;-73
2024/01/01 05:49:08;;;;;;;84.60;55.80;;;2.60;99.90;;;;;;5080985;28;20039;-74
2024/01/01 05:51:35;;;;;;;87.15;56.13;;;2.70;99.90;;;;;;5081086;28;20535;-73
2024/01/01 05:54:02;;;;;;;89.25;54.63;;;2.70;99.90;;;;;;5077515;28;20036;-72
2024/01/01 05:56:29;;;;;;;97.50;58.00;;;2.60;99.90;;;;;;5076572;28;20078;-75
2024/01/01 05:58:57;;;;;;;91.30;57.33;;;2.60;99.90;;;;;;5079577;28;20086;-73
2024/01/01 06:01:24;;;;;;;93.05;57.10;;;2.20;99.90;;;;;;5078002;28;20468;-70
2024/01/01 06:03:52;;;;;;;89.88;57.97;;;2.10;99.90;;;;;;5076926;28;20037;-73
2024/01/01 06:06:19;;;;;;;97.45;57.45;;;2.20;99.90;;;;;;5080246;28;20090;-71
2024/01/01 06:08:47;;;;;;;93.85;59.45;;;2.40;99.90;;;;;;5079115;28;20387;-71
2024/01/01 06:11:14;;;;;;;100.40;59.28;;;2.50;99.90;;;;;;5082066;28;20102;-71
2024/01/01 06:13:42;;;;;;;90.35;56.58;;;2.70;99.90;;;;;;5078201;28;20040;-72
2024/01/01 06:16:11;;;;;;;92.13;57.83;;;2.50;99.90;;;;;;5079094;28;20050;-73
2024/01/01 06:18:38;;;;;;;87.10;56.78;;;2.60;99.90;;;;;;5080381;28;20032;-72
2024/01/01 06:21:06;;;;;;;90.88;56.35;;;2.60;99.90;;;;;;5078840;28;20034;-73
2024/01/01 06:23:33;;;;;;;86.13;54.28;;;2.40;99.90;;;;;;5094199;28;20109;-71
2024/01/01 06:26:01;;;;;;;93.80;57.13;;;2.60;99.90;;;;;;5076811;28;20128;-73
2024/01/01 06:28:29;;;;;;;92.00;57.10;;;2.80;99.90;;;;;;5073642;28;20781;-72
2024/01/01 06:31:00;;;;;;;85.03;56.00;;;2.90;99.90;;;;;;5079619;28;20433;-72
2024/01/01 06:33:29;;;;;;;89.32;54.30;;;2.90;99.90;;;;;;5074625;28;20475;-71
2024/01/01 06:35:57;;;;;;;92.83;54.80;;;2.70;99.90;;;;;;5080194;28;20040;-73
2024/01/01 06:38:24;;;;;;;86.47;53.55;;;2.70;99.90;;;;;;5079707;28;20024;-71
2024/01/01 06:40:51;;;;;;;93.32;53.60;;;2.80;99.90;;;;;;5076008;28;20538;-69
2024/01/01 06:43:19;;;;;;;90.55;53.65;;;2.70;99.90;;;;;;5080371;28;20052;-74
2024/01/01 06:45:46;;;;;;;92.38;55.47;;;2.70;99.90;;;;;;5080052;28;20055;-71
2024/01/01 06:48:13;;;;;;;95.63;56.25;;;2.80;99.90;;;;;;5078603;28;20039;-69
2024/01/01 06:50:41;;;;;;;95.13;57.95;;;2.70;99.90;;;;;;5077124;28;20071;-72
2024/01/01 06:53:08;;;;;;;89.47;56.92;;;2.60;99.90;;;;;;5077774;28;20042;-70
2024/01/01 06:55:35;;;;;;;96.20;58.83;;;2.70;99.90;;;;;;5077143;28;20047;-69
2024/01/01 06:58:03;;;;;;;99.18;58.22;;;2.70;99.90;;;;;;5078855;28;20036;-70
2024/01/01 07:00:31;;;;;;;97.50;58.58;;;2.90;99.90;;;;;;5080652;28;20384;-71
2024/01/01 07:03:00;;;;;;;97.47;58.65;;;2.90;99.90;;;;;;5076380;28;20037;-73
2024/01/01 07:05:29;;;;;;;93.65;59.97;;;2.80;99.90;;;;;;5077078;28;20060;-73
2024/01/01 07:07:57;;;;;;;99.47;57.63;;;3.00;99.90;;;;;;5077859;28;20033;-72
2024/01/01 07:10:24;;;;;;;106.57;59.05;;;3.20;99.90;;;;;;5079117;28;20039;-75
2024/01/01 07:12:52;;;;;;;97.35;57.53;;;3.20;99.90;;;;;;5072209;28;20036;-72
2024/01/01 07:15:19;;;;;;;100.97;59.60;;;3.40;99.90;;;;;;5077823;28;20044;-74
2024/01/01 07:17:47;;;;;;;107.82;58.88;;;3.40;99.90;;;;;;5080127;28;20032;-74
2024/01/01 07:20:15;;;;;;;96.50;59.95;;;3.50;99.90;;;;;;5079647;28;20512;-71
2024/01/01 07:22:42;;;;;;;97.75;57.70;;;3.60;99.90;;;;;;5079717;28;20032;-76
2024/01/01 07:25:09;;;;;;;93.03;56.42;;;3.60;99.90;;;;;;5079274;28;20089;-72
2024/01/01 07:27:37;;;;;;;103.80;56.78;;;3.70;99.90;;;;;;5085011;28;20050;-74
2024/01/01 07:30:05;;;;;;;98.75;53.97;;;3.90;99.90;;;;;;5084943;28;20556;-72
2024/01/01 07:32:32;;;;;;;101.20;57.90;;;3.80;99.90;;;;;;5081985;28;20115;-72
2024/01/01 07:35:00;;;;;;;106.63;57.97;;;3.70;99.90;;;;;;5079566;28;20766;-74
2024/01/01 07:37:28;;;;;;;101.38;55.95;;;3.80;99.90;;;;;;5083451;28;20031;-75
2024/01/01 07:39:55;;;;;;;94.32;57.83;;;3.70;99.90;;;;;;5081001;28;20040;-74
2024/01/01 07:42:23;;;;;;;103.82;56.72;;;3.60;99.90;;;;;;5081738;28;20028;-75
2024/01/01 07:44:50;;;;;;;112.50;56.60;;;3.50;99.90;;;;;;5082226;28;20040;-74
2024/01/01 07:47:19;;;;;;;96.95;57.03;;;3.30;99.90;;;;;;5075977;28;20651;-75
2024/01/01 07:49:47;;;;;;;95.80;55.83;;;3.10;99.90;;;;;;5061915;28;20039;-76
2024/01/01 07:52:14;;;;;;;99.13;55.83;;;3.20;99.90;;;;;;5086167;28;20028;-74
2024/01/01 07:54:42;;;;;;;97.15;55.60;;;3.40;99.90;;;;;;5080877;28;20109;-74
2024/01/01 07:57:09;;;;;;;102.28;56.17;;;3.40;99.90;;;;;;5079644;28;20059;-70
2024/01/01 07:59:36;;;;;;;94.13;54.25;;;3.40;99.90;;;;;;5084422;28;20770;-73
2024/01/01 08:02:04;;;;;;;101.57;51.42;;;3.40;99.90;;;;;;5073733;28;20035;-75
2024/01/01 08:04:31;;;;;;;92.22;54.33;;;3.00;99.90;;;;;;5085694;28;20711;-75
2024/01/01 08:06:59;;;;;;;100.65;57.13;;;3.00;99.90;;;;;;5081330;28;20386;-71
2024/01/01 08:09:26;;;;;;;103.78;57.75;;;3.20;99.90;;;;;;5075025;28;20028;-74
2024/01/01 08:11:53;;;;;;;94.05;55.20;;;3.00;99.90;;;;;;5082831;28;20067;-74
2024/01/01 08:14:21;;;;;;;112.05;59.50;;;3.20;99.90;;;;;;5078304;28;20056;-73
2024/01/01 08:16:48;;;;;;;113.35;59.97;;;3.30;99.90;;;;;;5081010;28;20446;-73
2024/01/01 08:19:16;;;;;;;110.65;58.70;;;3.50;99.90;;;;;;5082288;28;20039;-74
2024/01/01 08:21:43;;;;;;;105.18;57.55;;;3.60;99.90;;;;;;5073378;28;20043;-75
2024/01/01 08:24:10;;;;;;;104.50;58.53;;;3.50;99.90;;;;;;5080480;28;20114;-75
2024/01/01 08:26:37;;;;;;;115.22;61.70;;;3.50;99.90;;;;;;5077975;28;20383;-71
2024/01/01 08:29:05;;;;;;;99.03;58.97;;;3.50;99.90;;;;;;5076312;28;20037;-75
2024/01/01 08:31:32;;;;;;;109.32;59.72;;;3.70;99.90;;;;;;5082762;28;20101;-75
2024/01/01 08:34:00;;;;;;;98.43;56.78;;;3.60;99.90;;;;;;5078820;28;20206;-74
2024/01/01 08:36:27;;;;;;;115.32;61.40;;;3.40;99.90;;;;;;5081176;28;20354;-74
2024/01/01 08:38:55;;;;;;;112.93;62.20;;;3.40;99.90;;;;;;5079941;28;20040;-72
2024/01/01 08:41:22;;;;;;;103.72;56.78;;;3.90;99.90;;;;;;5078654;28;20538;-72
2024/01/01 08:43:56;;;;;;;94.85;52.72;;;3.90;99.90;;;;;;5081198;28;20542;-75
2024/01/01 08:46:25;;;;;;;107.63;57.10;;;4.10;99.90;;;;;;5081960;28;20032;-75
2024/01/01 08:48:52;;;;;;;102.82;56.45;;;4.00;99.90;;;;;;5079849;28;20152;-74
2024/01/01 08:51:20;;;;;;;106.22;55.80;;;4.10;99.90;;;;;;5078340;28;20127;-71
2024/01/01 08:53:47;;;;;;;99.57;57.67;;;4.20;99.90;;;;;;5082184;28;20115;-76
2024/01/01 08:56:15;;;;;;;102.40;55.95;;;4.30;99.90;;;;;;5071396;28;20056;-69
2024/01/01 08:58:43;;;;;;;109.22;61.25;;;4.20;99.90;;;;;;5078436;28;20387;-74
2024/01/01 09:01:10;;;;;;;109.47;59.00;;;4.00;99.90;;;;;;5085035;28;20422;-73
2024/01/01 09:03:38;;;;;;;114.25;57.55;;;4.70;99.90;;;;;;5079133;28;20056;-76
2024/01/01 09:06:05;;;;;;;104.22;57.38;;;4.90;99.90;;;;;;5078772;28;20067;-74
2024/01/01 09:08:33;;;;;;;105.93;60.42;;;5.20;99.90;;;;;;5083189;28;20035;-74
2024/01/01 09:11:02;;;;;;;95.20;55.78;;;5.60;99.90;;;;;;5078990;28;20040;-75
2024/01/01 09:13:30;;;;;;;108.95;57.13;;;5.80;99.90;;;;;;5079527;28;20028;-73
2024/01/01 09:15:57;;;;;;;98.82;57.30;;;5.50;99.90;;;;;;5075973;28;20044;-72
2024/01/01 09:18:25;;;;;;;96.18;58.38;;;5.40;99.90;;;;;;5078491;28;20054;-73
2024/01/01 09:20:52;;;;;;;106.30;57.58;;;5.50;99.90;;;;;;5081848;28;20070;-72
2024/01/01 09:23:26;;;;;;;176.60;93.75;;;5.10;99.90;;;;;;5078705;28;20391;-75
2024/01/01 09:25:54;;;;;;;129.15;69.28;;;5.20;99.90;;;;;;5074465;28;20352;-74
2024/01/01 09:28:22;;;;;;;102.95;59.97;;;5.60;99.90;;;;;;5076424;28;20098;-72
2024/01/01 09:30:49;;;;;;;103.82;55.22;;;5.50;99.90;;;;;;5074341;28;20035;-73
2024/01/01 09:33:17;;;;;;;94.63;56.72;;;5.30;99.90;;;;;;5079226;28;20047;-72
2024/01/01 09:35:45;;;;;;;95.20;57.45;;;5.10;99.90;;;;;;5074343;28;20039;-74
2024/01/01 09:38:15;;;;;;;98.60;55.92;;;5.20;99.90;;;;;;5077032;28;20040;-72
2024/01/01 09:40:44;;;;;;;101.75;56.38;;;5.40;99.90;;;;;;5075165;28;20127;-76
2024/01/01 09:43:18;;;;;;;99.40;56.28;;;5.20;99.90;;;;;;5079103;28;20047;-72
2024/01/01 09:45:48;;;;;;;102.20;58.10;;;5.40;99.90;;;;;;5072872;28;20111;-72
2024/01/01 09:48:16;;;;;;;101.65;58.00;;;5.20;99.90;;;;;;5076234;28;20077;-70
2024/01/01 09:50:44;;;;;;;96.07;56.70;;;5.40;99.90;;;;;;5077974;28;20665;-71
2024/01/01 09:53:12;;;;;;;96.70;56.50;;;5.30;99.90;;;;;;5074387;28;20051;-71
2024/01/01 09:55:39;;;;;;;99.47;57.13;;;5.30;99.90;;;;;;5072529;28;20509;-74
2024/01/01 09:58:06;;;;;;;101.75;58.38;;;5.60;99.90;;;;;;5074173;28;20430;-73
2024/01/01 10:00:34;;;;;;;103.70;59.38;;;5.50;99.90;;;;;;5080584;28;20435;-75
2024/01/01 10:03:11;;;;;;;107.10;60.65;;;5.60;99.90;;;;;;5073505;28;20033;-71
2024/01/01 10:05:40;;;;;;;103.68;62.13;;;5.60;99.90;;;;;;5078635;28;20056;-75
2024/01/01 10:08:11;;;;;;;115.65;65.72;;;5.90;99.90;;;;;;5077163;28;20032;-74
2024/01/01 10:10:40;;;;;;;126.13;69.93;;;5.90;99.90;;;;;;5077150;28;20040;-73
2024/01/01 10:13:13;;;;;;;119.97;68.47;;;5.60;99.90;;;;;;5084123;28;20040;-75
2024/01/01 10:15:42;;;;;;;114.60;67.45;;;5.70;99.90;;;;;;5073364;28;20139;-71
2024/01/01 10:18:14;;;;;;;122.00;67.18;;;5.80;99.90;;;;;;5080060;28;20040;-74
2024/01/01 10:20:43;;;;;;;112.65;65.47;;;6.10;99.90;;;;;;5075548;28;20123;-74
2024/01/01 10:23:20;;;;;;;111.65;65.03;;;6.10;99.90;;;;;;5073589;28;20394;-75
2024/01/01 10:25:51;;;;;;;112.22;65.38;;;6.00;99.90;;;;;;5076924;28;20093;-75
2024/01/01 10:28:24;;;;;;;112.75;63.33;;;6.20;99.90;;;;;;5073325;28;20324;-74
2024/01/01 10:30:52;;;;;;;120.45;66.22;;;6.30;99.90;;;;;;5071612;28;20047;-72
2024/01/01 10:33:21;;;;;;;120.22;68.38;;;6.30;99.90;;;;;;5077612;28;20043;-69
2024/01/01 10:35:50;;;;;;;127.57;69.32;;;6.90;99.90;;;;;;5077688;28;20499;-70
2024/01/01 10:38:18;;;;;;;120.78;70.05;;;7.30;99.90;;;;;;5080218;28;20105;-72
2024/01/01 10:40:46;;;;;;;115.88;70.05;;;7.40;99.90;;;;;;5070527;28;20107;-74
2024/01/01 10:43:14;;;;;;;115.30;68.13;;;7.90;99.90;;;;;;5081298;28;20033;-71
2024/01/01 10:45:44;;;;;;;109.13;66.53;;;8.00;99.90;;;;;;5080258;28;20087;-73
2024/01/01 10:48:14;;;;;;;124.20;69.70;;;7.90;99.90;;;;;;5073874;28;20508;-72
2024/01/01 10:51:05;;;;;;;118.25;71.03;;;8.10;99.90;;;;;;5074209;28;20043;-73
2024/01/01 10:54:04;;;;;;;118.38;70.15;;;8.40;99.90;;;;;;5071929;28;20432;-72
2024/01/01 10:57:09;;;;;;;115.65;67.82;;;9.00;99.90;;;;;;5050943;28;20029;-74
2024/01/01 10:59:46;;;;;;;132.40;78.90;;;9.60;99.90;;;;;;5083311;28;20388;-73
2024/01/01 11:02:13;;;;;;;160.20;96.88;;;9.70;99.90;;;;;;5084400;28;20386;-72
2024/01/01 11:04:40;;;;;;;111.35;71.43;;;10.20;99.90;;;;;;5083528;28;20081;-71
2024/01/01 11:07:08;;;;;;;116.20;71.80;;;10.40;99.90;;;;;;5081474;28;20399;-71
2024/01/01 11:09:35;;;;;;;113.35;68.60;;;12.90;98.00;;;;;;5082057;28;20044;-77
2024/01/01 11:12:05;;;;;;;102.90;62.35;;;15.30;92.10;;;;;;5083209;28;20074;-72
2024/01/01 11:14:34;;;;;;;99.40;67.63;;;16.90;90.00;;;;;;5080603;28;20032;-72
2024/01/01 11:17:06;;;;;;;112.43;71.40;;;16.80;78.90;;;;;;5078584;28;20041;-73
2024/01/01 11:19:39;;;;;;;113.28;75.93;;;16.80;81.50;;;;;;5079952;28;20030;-72
2024/01/01 11:22:29;;;;;;;114.43;78.07;;;17.60;76.60;;;;;;5080874;28;20037;-73
2024/01/01 11:25:00;;;;;;;113.80;76.80;;;18.60;73.50;;;;;;5079995;28;20035;-76
2024/01/01 11:27:32;;;;;;;114.65;79.47;;;19.40;70.90;;;;;;5093652;28;20033;-79
2024/01/01 11:30:04;;;;;;;128.75;89.55;;;18.40;69.90;;;;;;5082766;28;20032;-73
2024/01/01 11:32:34;;;;;;;306.77;203.70;;;18.30;73.00;;;;;;5070748;28;20060;-73
2024/01/01 11:35:16;;;;;;;220.10;148.10;;;19.30;70.30;;;;;;5080649;28;20039;-72
2024/01/01 11:37:44;;;;;;;137.57;95.10;;;18.70;68.90;;;;;;5062943;28;20087;-73
2024/01/01 11:40:13;;;;;;;112.25;75.88;;;16.50;74.20;;;;;;5079374;28;20044;-73
2024/01/01 11:42:40;;;;;;;113.97;73.57;;;14.80;78.30;;;;;;5074849;28;20382;-71
2024/01/01 11:45:17;;;;;;;105.78;71.90;;;14.00;82.40;;;;;;5075422;28;20059;-73
2024/01/01 11:47:45;;;;;;;97.90;68.07;;;13.30;84.40;;;;;;5055807;28;20658;-72
2024/01/01 11:50:13;;;;;;;100.60;66.97;;;13.30;85.20;;;;;;5047209;28;20090;-72
2024/01/01 11:52:41;;;;;;;99.82;67.25;;;13.20;85.30;;;;;;5076951;28;20073;-72
2024/01/01 11:55:09;;;;;;;94.75;64.22;;;13.50;85.10;;;;;;5076026;28;20078;-73
2024/01/01 11:57:39;;;;;;;94.53;62.75;;;13.20;84.80;;;;;;5074219;28;20379;-72
2024/01/01 12:00:07;;;;;;;95.47;63.67;;;13.30;86.10;;;;;;5075998;28;20029;-72
2024/01/01 12:02:34;;;;;;;91.05;61.80;;;13.30;86.20;;;;;;5078991;28;20079;-72
2024/01/01 12:05:02;;;;;;;93.00;62.63;;;13.30;85.60;;;;;;5077254;28;20060;-73
2024/01/01 12:07:31;;;;;;;92.03;61.95;;;14.20;85.30;;;;;;5078652;28;20047;-74
2024/01/01 12:10:04;;;;;;;97.20;62.72;;;16.40;81.70;;;;;;5062100;28;20119;-73
2024/01/01 12:12:31;;;;;;;90.45;59.88;;;18.50;74.40;;;;;;5080260;28;20032;-74
2024/01/01 12:15:09;;;;;;;95.30;62.92;;;20.10;69.60;;;;;;5070317;28;20041;-76
2024/01/01 12:17:47;;;;;;;107.05;70.45;;;19.80;68.40;;;;;;5075572;28;20094;-74
2024/01/01 12:20:19;;;;;;;95.18;63.28;;;19.70;68.50;;;;;;5078311;28;20113;-74
2024/01/01 12:22:48;;;;;;;94.85;62.88;;;20.20;66.60;;;;;;5075548;28;20036;-74
2024/01/01 12:25:22;;;;;;;88.45;60.15;;;19.80;67.10;;;;;;5076515;28;20083;-73
2024/01/01 12:28:07;;;;;;;87.75;58.75;;;20.30;65.90;;;;;;5076179;28;20081;-73
2024/01/01 12:30:38;;;;;;;85.03;59.58;;;19.80;67.20;;;;;;5078000;28;20040;-71
2024/01/01 12:33:05;;;;;;;;;;;19.20;69.00;;;;;;5078775;28;20035;-74
2024/01/01 12:35:36;;;;;;;78.47;57.72;;;21.20;66.70;;;;;;5078049;28;19924;-72